Time;durP1;ratioP1;P1;durP2;ratioP2;P2;SDS_P1;SDS_P2;PMS_P1;PMS_P2;Temp;Humidity;BMP_temperature;BMP_pressure;BME280_temperature;BME280_humidity;BME280_pressure;Samples;Min_cycle;Max_cycle;Signal;HPM_P1;HPM_P2
2022/04/10 00:00:27;;;;;;;8.93;2.38;;;;;;;2.95;54.17;100058.44;10307030;28;20054;-76
2022/04/10 00:05:28;;;;;;;7.50;2.88;;;;;;;2.94;54.51;100061.06;10306189;28;20090;-76
2022/04/10 00:10:30;;;;;;;7.65;2.78;;;;;;;2.87;54.44;100060.38;10306451;28;20160;-76
2022/04/10 00:15:32;;;;;;;7.15;2.90;;;;;;;2.87;54.81;100068.13;10306475;28;20140;-76
2022/04/10 00:20:34;;;;;;;5.80;2.67;;;;;;;2.88;54.42;100067.25;10306988;28;20050;-75
2022/04/10 00:25:36;;;;;;;6.72;2.65;;;;;;;2.82;54.63;100067.41;10305024;28;20201;-75
2022/04/10 00:30:37;;;;;;;10.50;2.90;;;;;;;2.80;54.55;100071.78;10306369;28;20657;-75
2022/04/10 00:35:39;;;;;;;8.25;2.42;;;;;;;2.76;54.34;100071.88;10289335;28;20133;-75
2022/04/10 00:40:42;;;;;;;7.10;2.70;;;;;;;2.75;54.50;100076.19;10306585;28;20149;-75
2022/04/10 00:45:44;;;;;;;7.20;2.60;;;;;;;2.68;54.59;100077.22;10305897;28;20085;-75
2022/04/10 00:51:40;;;;;;;5.65;2.45;;;;;;;2.68;54.81;100079.81;10306480;28;20065;-76
2022/04/10 00:56:08;;;;;;;9.20;2.60;;;;;;;2.63;54.73;100070.50;10304621;28;20551;-75
2022/04/10 01:01:10;;;;;;;7.63;2.85;;;;;;;2.61;55.30;100080.88;10304444;28;20935;-75
2022/04/10 01:06:13;;;;;;;7.70;3.30;;;;;;;2.35;55.97;100079.81;10303982;28;20065;-75
2022/04/10 01:11:15;;;;;;;6.85;2.63;;;;;;;2.16;56.43;100087.13;10302663;28;20622;-75
2022/04/10 01:16:17;;;;;;;8.77;3.15;;;;;;;2.00;57.07;100094.38;10304889;28;20086;-75
2022/04/10 01:21:24;;;;;;;7.63;3.20;;;;;;;1.87;57.41;100094.69;10304376;28;20058;-75
2022/04/10 01:26:27;;;;;;;8.85;3.10;;;;;;;1.89;57.19;100096.34;10303702;28;20462;-75
2022/04/10 01:31:32;;;;;;;8.52;2.90;;;;;;;1.93;57.12;100091.97;10287411;28;20137;-75
2022/04/10 01:36:35;;;;;;;5.53;2.95;;;;;;;1.91;57.32;100101.47;10304086;28;20062;-75
2022/04/10 01:41:37;;;;;;;8.57;3.50;;;;;;;1.67;57.77;100096.81;10303871;28;20061;-75
2022/04/10 01:46:39;;;;;;;10.77;3.63;;;;;;;1.47;58.14;100109.28;10302893;28;20058;-75
2022/04/10 01:51:41;;;;;;;5.80;2.83;;;;;;;1.31;58.71;100108.75;10304046;28;20108;-75
2022/04/10 01:56:43;;;;;;;8.82;2.97;;;;;;;1.33;58.59;100115.56;10302663;28;20558;-74
2022/04/10 02:01:45;;;;;;;11.60;3.20;;;;;;;1.37;58.84;100118.94;10305664;28;20113;-75
2022/04/10 02:06:47;;;;;;;6.53;2.85;;;;;;;1.38;58.68;100120.63;10308014;28;20050;-75
2022/04/10 02:11:50;;;;;;;8.52;3.17;;;;;;;1.34;58.72;100117.25;10309767;28;20097;-75
2022/04/10 02:16:51;;;;;;;7.97;3.10;;;;;;;1.29;58.98;100116.50;10309862;28;20108;-75
2022/04/10 02:21:57;;;;;;;9.38;3.00;;;;;;;1.31;59.13;100111.31;10310962;28;20057;-75
2022/04/10 02:26:58;;;;;;;8.57;2.97;;;;;;;1.22;59.27;100104.63;10309431;28;20524;-75
2022/04/10 02:32:00;;;;;;;9.10;3.28;;;;;;;1.18;59.38;100107.28;10309341;28;20143;-75
2022/04/10 02:37:02;;;;;;;6.35;3.15;;;;;;;1.14;59.77;100101.34;10308472;28;20061;-75
2022/04/10 02:42:04;;;;;;;6.47;3.17;;;;;;;1.09;59.87;100108.31;10309701;28;20439;-75
2022/04/10 02:47:06;;;;;;;6.18;3.15;;;;;;;1.12;59.69;100105.66;10309900;28;20100;-75
2022/04/10 02:52:08;;;;;;;7.35;3.35;;;;;;;1.05;59.94;100113.53;10310698;28;20112;-75
2022/04/10 02:57:10;;;;;;;5.70;3.03;;;;;;;0.96;59.77;100117.13;10314149;28;20053;-75
2022/04/10 03:02:12;;;;;;;9.02;3.70;;;;;;;0.87;60.30;100121.59;10316295;28;20054;-75
2022/04/10 03:07:14;;;;;;;7.00;2.92;;;;;;;0.91;59.99;100125.81;10311661;28;20628;-75
2022/04/10 03:12:16;;;;;;;8.82;3.25;;;;;;;0.91;60.22;100126.66;10309846;28;20540;-75
2022/04/10 03:17:17;;;;;;;11.65;3.20;;;;;;;0.97;60.00;100134.25;10309419;28;20156;-75
2022/04/10 03:22:19;;;;;;;5.90;3.00;;;;;;;0.92;60.13;100146.38;10310470;28;20050;-75
2022/04/10 03:27:21;;;;;;;6.72;3.53;;;;;;;0.91;60.09;100154.97;10309061;28;20050;-75
2022/04/10 03:32:23;;;;;;;8.20;3.00;;;;;;;0.90;60.07;100153.28;10291932;28;20056;-75
2022/04/10 03:37:25;;;;;;;8.48;3.13;;;;;;;0.88;60.26;100159.34;10310963;28;20054;-75
2022/04/10 03:43:13;;;;;;;7.28;3.38;;;;;;;0.86;60.48;100167.09;10309443;28;20104;-75
2022/04/10 03:48:15;;;;;;;5.88;2.97;;;;;;;0.79;60.18;100169.81;10310792;28;20121;-74
2022/04/10 03:53:17;;;;;;;7.32;3.65;;;;;;;0.65;60.37;100177.72;10309089;28;20081;-74
2022/04/10 03:58:19;;;;;;;11.27;3.72;;;;;;;0.48;60.66;100174.56;10310700;28;20108;-74
2022/04/10 04:03:21;;;;;;;8.77;3.80;;;;;;;0.34;61.00;100190.19;10310023;28;20139;-74
2022/04/10 04:08:23;;;;;;;13.02;5.53;;;;;;;0.24;61.22;100188.63;10307691;28;20058;-75
2022/04/10 04:13:25;;;;;;;10.05;5.47;;;;;;;0.18;61.35;100196.44;10312398;28;20444;-73
2022/04/10 04:18:26;;;;;;;10.13;4.80;;;;;;;0.13;61.75;100194.81;10308538;28;20046;-73
2022/04/10 04:23:29;;;;;;;7.57;4.00;;;;;;;0.11;61.79;100199.97;10308432;28;20100;-73
2022/04/10 04:28:32;;;;;;;7.28;4.45;;;;;;;0.11;61.74;100209.41;10309287;28;20089;-74
2022/04/10 04:33:34;;;;;;;8.60;4.05;;;;;;;0.15;61.86;100216.19;10292015;28;20054;-73
2022/04/10 04:38:35;;;;;;;8.73;3.70;;;;;;;0.22;61.75;100222.97;10308503;28;20137;-73
2022/04/10 04:43:37;;;;;;;6.63;3.30;;;;;;;0.35;62.07;100220.22;10308131;28;20054;-73
2022/04/10 04:48:39;;;;;;;6.75;3.33;;;;;;;0.52;61.80;100222.56;10305530;28;20050;-73
2022/04/10 04:53:41;;;;;;;9.30;3.63;;;;;;;0.82;61.30;100232.38;10307601;28;20051;-76
2022/04/10 04:58:43;;;;;;;7.18;3.30;;;;;;;0.96;60.96;100240.72;10308122;28;20077;-75
2022/04/10 05:03:45;;;;;;;6.68;3.40;;;;;;;1.08;60.48;100237.94;10308958;28;20773;-74
2022/04/10 05:08:46;;;;;;;9.85;3.33;;;;;;;1.46;59.87;100245.03;10307697;28;20137;-74
2022/04/10 05:13:48;;;;;;;10.15;3.53;;;;;;;1.81;59.45;100249.50;10306516;28;20136;-76
2022/04/10 05:18:50;;;;;;;8.48;3.50;;;;;;;1.90;58.61;100257.09;10307575;28;20054;-75
2022/04/10 05:23:52;;;;;;;6.68;3.53;;;;;;;1.86;58.59;100263.19;10306909;28;20097;-75
2022/04/10 05:28:54;;;;;;;10.07;3.53;;;;;;;1.82;58.44;100266.69;10306536;28;20104;-75
2022/04/10 05:34:00;;;;;;;7.00;3.20;;;;;;;1.81;58.64;100270.13;10306837;28;20050;-74
2022/04/10 05:39:02;;;;;;;7.70;3.17;;;;;;;1.81;58.39;100276.16;10306099;28;20413;-74
2022/04/10 05:44:04;;;;;;;8.02;3.15;;;;;;;1.85;58.23;100276.94;10289866;28;20141;-75
2022/04/10 05:49:06;;;;;;;6.60;3.20;;;;;;;2.01;58.14;100275.78;10306979;28;20073;-74
2022/04/10 05:54:08;;;;;;;10.38;3.47;;;;;;;2.08;57.96;100285.09;10305677;28;20054;-75
2022/04/10 05:59:09;;;;;;;7.57;3.20;;;;;;;2.15;57.83;100282.34;10290122;28;20050;-75
2022/04/10 06:04:11;;;;;;;7.07;3.03;;;;;;;2.36;57.52;100293.16;10305309;28;20589;-75
2022/04/10 06:09:13;;;;;;;8.18;3.45;;;;;;;2.46;57.41;100294.66;10298608;28;20149;-75
2022/04/10 06:14:15;;;;;;;8.57;3.67;;;;;;;2.51;56.93;100300.56;10304202;28;20101;-75
2022/04/10 06:19:18;;;;;;;8.23;3.92;;;;;;;2.46;57.36;100303.22;10283103;28;20062;-75
2022/04/10 06:24:21;;;;;;;9.80;4.43;;;;;;;2.65;57.12;100307.13;10300043;28;21276;-75
2022/04/10 06:29:23;;;;;;;6.10;3.25;;;;;;;2.83;56.78;100304.13;10303772;28;20393;-75
2022/04/10 06:34:25;;;;;;;7.78;3.58;;;;;;;3.09;56.25;100306.09;10306263;28;20137;-75
2022/04/10 06:39:28;;;;;;;10.20;4.35;;;;;;;3.36;55.78;100302.00;10311139;28;20491;-75
2022/04/10 06:44:29;;;;;;;10.30;4.38;;;;;;;3.61;55.53;100301.38;10311050;28;20500;-75
2022/04/10 06:49:32;;;;;;;9.38;3.53;;;;;;;3.79;55.36;100310.38;10308459;28;20058;-75
2022/04/10 06:54:34;;;;;;;7.80;3.63;;;;;;;4.01;55.03;100321.03;10310070;28;20520;-76
2022/04/10 06:59:36;;;;;;;10.63;3.63;;;;;;;4.39;54.24;100315.69;10308286;28;20093;-74
2022/04/10 07:04:39;;;;;;;9.07;3.67;;;;;;;4.37;54.26;100325.22;10308733;28;20042;-75
2022/04/10 07:09:41;;;;;;;8.75;4.18;;;;;;;4.60;54.07;100328.84;10309444;28;20086;-75
2022/04/10 07:14:43;;;;;;;7.93;4.30;;;;;;;4.43;54.04;100333.66;10309440;28;20427;-75
2022/04/10 07:19:45;;;;;;;8.02;3.78;;;;;;;4.65;53.96;100336.50;10289964;28;20086;-75
2022/04/10 07:24:47;;;;;;;9.90;4.10;;;;;;;4.58;54.01;100330.63;10309082;28;20397;-75
2022/04/10 07:29:48;;;;;;;6.95;4.15;;;;;;;4.60;53.83;100334.03;10308564;28;20108;-75
2022/04/10 07:34:50;;;;;;;8.00;3.97;;;;;;;4.78;53.63;100335.22;10307075;28;20878;-75
2022/04/10 07:39:52;;;;;;;8.75;4.30;;;;;;;5.05;53.61;100334.41;10305274;28;20062;-75
2022/04/10 07:44:56;;;;;;;10.73;4.00;;;;;;;5.55;52.51;100338.00;10308183;28;20117;-75
2022/04/10 07:49:58;;;;;;;8.90;4.30;;;;;;;6.19;51.43;100340.06;10308386;28;20566;-75
2022/04/10 07:55:00;;;;;;;8.10;3.97;;;;;;;6.60;50.49;100343.81;10290442;28;20172;-76
2022/04/10 08:00:02;;;;;;;8.13;3.70;;;;;;;7.12;50.05;100342.69;10307515;28;20073;-75
2022/04/10 08:05:05;;;;;;;8.00;3.67;;;;;;;7.53;48.89;100352.28;10307643;28;20070;-74
2022/04/10 08:10:07;;;;;;;8.52;5.30;;;;;;;7.97;48.22;100353.91;10301749;28;20058;-74
2022/04/10 08:15:10;;;;;;;7.47;3.53;;;;;;;8.41;46.40;100346.78;10306511;28;20385;-75
2022/04/10 08:20:12;;;;;;;6.80;3.13;;;;;;;8.30;46.17;100350.78;10305658;28;21133;-75
2022/04/10 08:25:16;;;;;;;10.07;3.45;;;;;;;8.29;46.01;100352.53;10304998;28;20575;-75
2022/04/10 08:30:19;;;;;;;6.70;3.03;;;;;;;8.87;45.73;100344.72;10305483;28;20062;-73
2022/04/10 08:35:21;;;;;;;5.20;3.00;;;;;;;9.62;43.98;100344.53;10301954;28;20511;-74
2022/04/10 08:40:23;;;;;;;7.45;3.00;;;;;;;10.02;43.35;100348.63;10299509;28;21005;-74
2022/04/10 08:45:25;;;;;;;8.38;3.17;;;;;;;9.93;42.68;100349.06;10302932;28;20104;-74
2022/04/10 08:50:28;;;;;;;7.07;2.72;;;;;;;10.39;42.21;100344.94;10303395;28;20062;-74
2022/04/10 08:55:30;;;;;;;6.70;2.90;;;;;;;10.81;41.45;100350.50;10303813;28;20662;-74
2022/04/10 09:01:12;;;;;;;6.68;2.78;;;;;;;11.01;39.00;100368.59;10287913;28;20058;-74
2022/04/10 09:06:15;;;;;;;8.27;2.80;;;;;;;11.68;39.44;100365.69;10302621;28;20058;-74
2022/04/10 09:11:16;;;;;;;7.15;2.85;;;;;;;11.39;39.74;100363.03;10304721;28;20070;-75
2022/04/10 09:16:23;;;;;;;6.45;2.60;;;;;;;11.37;37.47;100372.75;10300183;28;20084;-74
2022/04/10 09:21:33;;;;;;;5.35;2.30;;;;;;;11.59;37.22;100363.59;10299369;28;20077;-74
2022/04/10 09:26:48;;;;;;;5.67;2.30;;;;;;;11.11;35.19;100366.38;10302501;28;20521;-75
2022/04/10 09:31:51;;;;;;;6.05;2.20;;;;;;;10.52;38.19;100367.75;10304191;28;20093;-74
2022/04/10 09:37:01;;;;;;;4.40;2.25;;;;;;;10.07;37.28;100366.69;10316002;28;20132;-74
2022/04/10 09:42:10;;;;;;;6.35;2.33;;;;;;;11.06;37.05;100363.13;10303519;28;20155;-74
2022/04/10 09:47:32;;;;;;;4.47;1.98;;;;;;;11.84;35.78;100361.28;10301952;28;20428;-74
2022/04/10 09:52:37;;;;;;;6.25;2.33;;;;;;;11.18;36.25;100358.06;10280953;28;20046;-74
2022/04/10 09:58:23;;;;;;;7.30;2.35;;;;;;;11.06;34.44;100352.66;10298714;28;20150;-75
2022/04/10 10:03:29;;;;;;;5.40;2.05;;;;;;;12.08;34.47;100340.63;10297291;28;20153;-74
2022/04/10 10:08:33;;;;;;;7.53;2.30;;;;;;;11.91;35.42;100333.75;10297975;28;20202;-74
2022/04/10 10:13:37;;;;;;;8.07;2.47;;;;;;;10.40;35.67;100347.47;10302670;28;20050;-75
2022/04/10 10:18:40;;;;;;;7.05;2.33;;;;;;;10.02;37.41;100348.63;10292285;28;20054;-75
2022/04/10 10:23:48;;;;;;;8.18;2.70;;;;;;;9.92;37.73;100341.31;10283361;28;20054;-75
2022/04/10 10:29:16;;;;;;;6.30;2.30;;;;;;;9.80;37.27;100344.53;10301402;28;20531;-75
2022/04/10 10:34:21;;;;;;;5.82;2.13;;;;;;;9.55;38.09;100343.13;10301277;28;20066;-75
2022/04/10 10:39:23;;;;;;;5.95;2.50;;;;;;;9.33;39.21;100352.91;10299908;28;20046;-74
2022/04/10 10:44:25;;;;;;;6.50;2.30;;;;;;;9.35;39.44;100351.06;10298777;28;20467;-75
2022/04/10 10:49:31;;;;;;;7.25;2.40;;;;;;;9.33;39.63;100352.91;10300810;28;20064;-75
2022/04/10 10:54:50;;;;;;;7.05;2.80;;;;;;;9.17;41.69;100354.56;10300935;28;20112;-75
2022/04/10 11:00:16;;;;;;;7.20;2.28;;;;;;;9.89;40.13;100344.91;10301384;28;20105;-76
2022/04/10 11:05:24;;;;;;;5.30;2.45;;;;;;;10.61;39.17;100340.28;10302202;28;20042;-75
2022/04/10 11:10:29;;;;;;;6.25;2.50;;;;;;;11.19;38.04;100336.19;10302146;28;20167;-75
2022/04/10 11:15:46;;;;;;;5.70;2.33;;;;;;;10.54;37.68;100338.94;10299455;28;20082;-75
2022/04/10 11:21:08;;;;;;;6.22;2.20;;;;;;;10.06;37.63;100357.13;10306112;28;20089;-75
2022/04/10 11:26:22;;;;;;;4.43;2.22;;;;;;;10.08;38.06;100324.78;10303384;28;20159;-75
2022/04/10 11:31:40;;;;;;;7.45;2.60;;;;;;;9.75;38.02;100331.72;10309924;28;20050;-75
2022/04/10 11:36:52;;;;;;;4.80;2.08;;;;;;;9.50;38.55;100323.38;10306622;28;20688;-75
2022/04/10 11:41:58;;;;;;;4.68;2.55;;;;;;;9.59;37.63;100329.00;10307694;28;20148;-75
2022/04/10 11:47:05;;;;;;;7.43;2.33;;;;;;;10.00;38.73;100332.16;10310757;28;20648;-75
2022/04/10 11:52:07;;;;;;;4.70;1.90;;;;;;;10.67;36.71;100324.25;10289341;28;20050;-75
2022/04/10 11:57:10;;;;;;;8.45;2.22;;;;;;;11.35;36.13;100323.09;10307940;28;20089;-75
2022/04/10 12:02:14;;;;;;;6.25;2.28;;;;;;;11.41;35.64;100328.00;10306200;28;20152;-76
2022/04/10 12:07:18;;;;;;;4.95;2.40;;;;;;;12.32;34.32;100327.84;10306819;28;20097;-75
2022/04/10 12:12:31;;;;;;;6.72;2.70;;;;;;;12.18;34.09;100315.53;10307692;28;20112;-75
2022/04/10 12:17:33;;;;;;;5.82;2.58;;;;;;;11.96;34.59;100315.16;10307359;28;20093;-75
2022/04/10 12:22:55;;;;;;;6.15;2.58;;;;;;;11.45;35.38;100312.94;10305881;28;20054;-75
2022/04/10 12:27:57;;;;;;;6.13;2.33;;;;;;;10.94;36.58;100314.91;10303769;28;20078;-75
2022/04/10 12:32:59;;;;;;;5.88;2.42;;;;;;;10.93;35.64;100312.38;10306386;28;20112;-75
2022/04/10 12:38:02;;;;;;;6.55;2.40;;;;;;;11.12;35.62;100320.91;10305093;28;20117;-75
2022/04/10 12:43:05;;;;;;;6.05;2.20;;;;;;;10.83;36.00;100322.50;10305518;28;20105;-75
2022/04/10 12:48:24;;;;;;;5.85;2.47;;;;;;;10.30;38.82;100346.28;10304903;28;20054;-74
2022/04/10 12:53:26;;;;;;;7.18;2.72;;;;;;;10.20;39.13;100318.91;10307040;28;20101;-75
2022/04/10 12:58:42;;;;;;;7.93;2.78;;;;;;;10.91;40.13;100322.91;10305161;28;20057;-75
2022/04/10 13:03:47;;;;;;;4.10;2.10;;;;;;;11.09;39.66;100314.06;10304970;28;20145;-75
2022/04/10 13:08:48;;;;;;;7.15;2.50;;;;;;;11.21;39.61;100313.38;10304756;28;20066;-75
2022/04/10 13:14:00;;;;;;;5.82;2.40;;;;;;;10.93;37.73;100304.53;10305654;28;20173;-75
2022/04/10 13:19:10;;;;;;;8.43;2.60;;;;;;;11.12;35.21;100303.44;10305630;28;20591;-76
2022/04/10 13:24:15;;;;;;;5.03;1.90;;;;;;;11.47;35.98;100290.13;10309464;28;20697;-75
2022/04/10 13:29:17;;;;;;;5.78;2.28;;;;;;;11.57;35.01;100291.28;10305900;28;20504;-76
2022/04/10 13:34:19;;;;;;;5.10;1.77;;;;;;;11.27;34.03;100299.13;10305073;28;20144;-76
2022/04/10 13:39:21;;;;;;;5.13;1.90;;;;;;;10.92;34.22;100303.69;10304886;28;20046;-76
2022/04/10 13:44:23;;;;;;;5.50;1.80;;;;;;;10.85;34.15;100293.63;10304032;28;20057;-75
2022/04/10 13:49:25;;;;;;;4.75;1.88;;;;;;;11.22;34.21;100291.53;10287057;28;20050;-75
2022/04/10 13:54:28;;;;;;;4.32;1.88;;;;;;;11.59;33.31;100276.31;10306036;28;20050;-75
2022/04/10 13:59:30;;;;;;;4.95;1.95;;;;;;;11.80;33.00;100265.44;10304070;28;20101;-75
2022/04/10 14:04:32;;;;;;;6.30;1.90;;;;;;;11.91;32.18;100267.38;10303054;28;20112;-75
2022/04/10 14:09:35;;;;;;;5.95;1.80;;;;;;;11.39;33.11;100255.69;10301746;28;20081;-76
2022/04/10 14:14:36;;;;;;;4.28;1.60;;;;;;;11.41;31.27;100262.53;10303765;28;20465;-75
2022/04/10 14:19:38;;;;;;;3.83;1.80;;;;;;;11.41;32.21;100252.03;10305019;28;20121;-75
2022/04/10 14:24:40;;;;;;;4.57;1.83;;;;;;;11.75;31.06;100248.28;10303730;28;20078;-75
2022/04/10 14:29:42;;;;;;;4.93;1.73;;;;;;;11.67;30.65;100256.59;10304420;28;20054;-75
2022/04/10 14:34:44;;;;;;;6.00;1.65;;;;;;;11.64;30.83;100245.47;10305916;28;20104;-75
2022/04/10 14:39:47;;;;;;;3.58;1.50;;;;;;;11.96;31.13;100239.97;10304357;28;20192;-75
2022/04/10 14:44:49;;;;;;;7.75;1.98;;;;;;;12.22;30.76;100243.63;10302378;28;20054;-75
2022/04/10 14:49:50;;;;;;;4.90;1.70;;;;;;;12.18;30.26;100236.03;10287940;28;20544;-75
2022/04/10 14:54:52;;;;;;;3.90;1.60;;;;;;;11.89;30.36;100225.56;10313036;28;20058;-75
2022/04/10 14:59:54;;;;;;;3.67;1.63;;;;;;;11.99;31.02;100225.81;10310570;28;20878;-75
2022/04/10 15:04:56;;;;;;;4.32;1.80;;;;;;;11.87;29.89;100216.09;10312594;28;20062;-75
2022/04/10 15:09:57;;;;;;;4.15;1.90;;;;;;;12.03;30.21;100220.31;10311906;28;20128;-76
2022/04/10 15:14:59;;;;;;;5.32;1.70;;;;;;;11.75;30.90;100227.31;10307373;28;20133;-76
2022/04/10 15:20:03;;;;;;;4.40;1.52;;;;;;;11.88;29.76;100223.88;10309749;28;20057;-76
2022/04/10 15:25:06;;;;;;;4.18;1.50;;;;;;;12.26;28.87;100228.53;10310536;28;20054;-76
2022/04/10 15:30:12;;;;;;;4.40;2.03;;;;;;;12.47;29.01;100227.25;10304673;28;20103;-76
2022/04/10 15:35:17;;;;;;;3.83;1.60;;;;;;;12.40;28.80;100228.56;10309084;28;20046;-76
2022/04/10 15:40:20;;;;;;;6.75;2.15;;;;;;;11.75;29.44;100232.56;10305440;28;20054;-76
2022/04/10 15:45:26;;;;;;;3.53;1.80;;;;;;;11.36;29.80;100250.63;10306531;28;20058;-76
2022/04/10 15:50:28;;;;;;;5.82;2.15;;;;;;;11.03;30.26;100248.94;10306323;28;20163;-75
2022/04/10 15:55:30;;;;;;;3.58;1.70;;;;;;;10.89;31.23;100241.03;10299091;28;20595;-76
2022/04/10 16:00:33;;;;;;;3.33;1.80;;;;;;;10.55;31.56;100248.22;10285403;28;20428;-75
2022/04/10 16:05:35;;;;;;;5.47;2.15;;;;;;;10.35;31.80;100249.31;10303612;28;20108;-75
2022/04/10 16:10:37;;;;;;;4.05;1.75;;;;;;;10.30;31.79;100246.94;10305801;28;20153;-76
2022/04/10 16:15:39;;;;;;;4.78;1.80;;;;;;;10.31;31.90;100242.56;10302838;28;20796;-76
2022/04/10 16:20:41;;;;;;;4.65;1.80;;;;;;;10.33;32.11;100244.16;10286374;28;20510;-76
2022/04/10 16:25:43;;;;;;;5.07;1.92;;;;;;;10.43;32.91;100242.75;10305473;28;20112;-76
2022/04/10 16:30:45;;;;;;;3.38;1.80;;;;;;;10.45;32.45;100247.88;10305336;28;20085;-76
2022/04/10 16:35:47;;;;;;;5.13;2.08;;;;;;;10.37;31.58;100239.59;10302737;28;20099;-76
2022/04/10 16:40:50;;;;;;;5.60;1.60;;;;;;;10.42;32.15;100234.97;10286794;28;20141;-77
2022/04/10 16:45:51;;;;;;;3.95;1.73;;;;;;;10.20;31.68;100237.91;10304245;28;20140;-77
2022/04/10 16:50:53;;;;;;;3.72;2.05;;;;;;;10.07;32.03;100238.63;10307093;28;20101;-77
2022/04/10 16:55:57;;;;;;;3.83;1.70;;;;;;;9.95;32.77;100236.66;10303424;28;20248;-76
2022/04/10 17:01:00;;;;;;;5.75;1.90;;;;;;;9.95;32.99;100244.50;10304425;28;20060;-76
2022/04/10 17:06:03;;;;;;;6.57;2.13;;;;;;;9.90;32.76;100246.50;10303642;28;20054;-76
2022/04/10 17:11:05;;;;;;;4.03;2.00;;;;;;;9.78;32.96;100247.13;10302884;28;20054;-76
2022/04/10 17:16:07;;;;;;;5.63;1.80;;;;;;;9.68;34.39;100251.13;10285143;28;20058;-76
2022/04/10 17:21:10;;;;;;;5.00;1.77;;;;;;;9.51;35.23;100255.41;10304227;28;20057;-76
2022/04/10 17:26:12;;;;;;;6.15;2.30;;;;;;;9.38;35.14;100258.72;10285459;28;20058;-76
2022/04/10 17:31:13;;;;;;;7.60;2.42;;;;;;;9.22;36.02;100263.00;10301853;28;20109;-76
2022/04/10 17:36:15;;;;;;;4.10;2.15;;;;;;;9.05;36.93;100255.16;10297999;28;20098;-75
2022/04/10 17:41:17;;;;;;;4.50;2.50;;;;;;;8.87;37.52;100253.44;10300257;28;20074;-76
2022/04/10 17:46:20;;;;;;;8.82;4.35;;;;;;;8.67;37.87;100255.19;10300904;28;20137;-75
2022/04/10 17:51:22;;;;;;;10.52;4.35;;;;;;;8.52;38.37;100255.06;10303355;28;20154;-75
2022/04/10 17:56:25;;;;;;;5.68;2.78;;;;;;;8.30;38.79;100262.19;10300077;28;20473;-76
2022/04/10 18:01:27;;;;;;;5.10;2.03;;;;;;;8.10;39.21;100265.66;10300058;28;20050;-75
2022/04/10 18:06:32;;;;;;;4.00;2.08;;;;;;;7.91;40.10;100262.16;10300930;28;20175;-75
2022/04/10 18:11:34;;;;;;;6.28;1.92;;;;;;;7.68;41.50;100270.97;10299088;28;20551;-75
2022/04/10 18:16:36;;;;;;;3.92;1.80;;;;;;;7.49;41.75;100274.41;10303733;28;20193;-76
2022/04/10 18:21:40;;;;;;;9.73;4.22;;;;;;;7.26;42.62;100280.56;10301955;28;21149;-75
2022/04/10 18:26:42;;;;;;;9.68;5.35;;;;;;;7.04;44.04;100282.31;10304476;28;20121;-75
2022/04/10 18:31:44;;;;;;;8.50;4.53;;;;;;;6.91;44.09;100286.31;10292463;28;20069;-75
2022/04/10 18:36:46;;;;;;;6.43;3.88;;;;;;;6.80;44.78;100302.31;10324228;28;20409;-81
2022/04/10 18:41:47;;;;;;;12.65;9.02;;;;;;;6.68;44.57;100294.13;10327624;28;20050;-81
2022/04/10 18:46:50;;;;;;;7.40;4.13;;;;;;;6.55;45.31;100300.72;10321697;28;20109;-82
2022/04/10 18:51:52;;;;;;;10.43;6.72;;;;;;;6.30;46.04;100309.41;10306215;28;20089;-81
2022/04/10 18:56:54;;;;;;;9.18;3.40;;;;;;;6.06;45.83;100312.84;10320968;28;20050;-82
2022/04/10 19:01:58;;;;;;;7.00;4.05;;;;;;;5.97;46.30;100317.50;10318605;28;20054;-81
2022/04/10 19:07:03;;;;;;;5.80;3.28;;;;;;;5.91;46.76;100325.50;10318382;28;20065;-81
2022/04/10 19:12:05;;;;;;;5.80;3.20;;;;;;;5.80;47.73;100330.22;10319225;28;20116;-74
2022/04/10 19:17:07;;;;;;;6.28;3.30;;;;;;;5.70;47.39;100331.41;10310894;28;20058;-74
2022/04/10 19:22:09;;;;;;;6.15;3.13;;;;;;;5.57;48.12;100345.72;10312001;28;20053;-74
2022/04/10 19:27:21;;;;;;;7.43;3.90;;;;;;;5.46;48.31;100336.53;10311565;28;20054;-74
2022/04/10 19:32:24;;;;;;;7.90;3.10;;;;;;;5.25;49.23;100349.31;10287968;28;20046;-74
2022/04/10 19:37:27;;;;;;;6.75;3.75;;;;;;;5.10;49.71;100342.03;10307064;28;20273;-73
2022/04/10 19:42:30;;;;;;;6.22;3.30;;;;;;;5.01;49.66;100348.34;10290838;28;20493;-74
2022/04/10 19:47:31;;;;;;;7.03;2.80;;;;;;;4.86;49.74;100343.63;10309336;28;20583;-74
2022/04/10 19:57:54;;;;;;;8.13;3.67;;;;;;;4.61;50.31;100353.88;10308367;28;20173;-74
2022/04/10 20:02:58;;;;;;;7.40;2.83;;;;;;;4.51;50.30;100360.22;10307211;28;20077;-73
2022/04/10 20:08:00;;;;;;;9.60;4.93;;;;;;;4.32;51.11;100371.97;10308346;28;20072;-74
2022/04/10 20:13:02;;;;;;;13.38;7.35;;;;;;;4.21;51.58;100373.97;10308514;28;20117;-74
2022/04/10 20:18:04;;;;;;;9.02;5.38;;;;;;;4.09;51.65;100369.13;10307856;28;20089;-74
2022/04/10 20:23:06;;;;;;;6.88;3.50;;;;;;;3.91;51.67;100372.19;10309190;28;20054;-74
2022/04/10 20:28:08;;;;;;;6.53;3.25;;;;;;;3.95;51.80;100370.38;10308594;28;20142;-74
2022/04/10 20:33:10;;;;;;;6.07;2.90;;;;;;;3.97;52.23;100374.63;10306752;28;20065;-73
2022/04/10 20:38:12;;;;;;;14.55;8.48;;;;;;;3.93;52.24;100365.25;10308056;28;20050;-74
2022/04/10 20:43:14;;;;;;;9.63;5.13;;;;;;;3.80;52.12;100364.66;10307783;28;20450;-74
2022/04/10 20:48:15;;;;;;;6.97;3.55;;;;;;;3.63;52.77;100372.03;10305183;28;20057;-74
2022/04/10 20:53:17;;;;;;;9.02;5.28;;;;;;;3.60;53.25;100369.50;10307853;28;20496;-74
2022/04/10 20:58:19;;;;;;;10.25;4.70;;;;;;;3.58;53.04;100371.28;10288970;28;20108;-74
2022/04/10 21:03:22;;;;;;;8.85;4.22;;;;;;;3.53;53.24;100373.13;10306916;28;20046;-73
2022/04/10 21:08:24;;;;;;;6.05;3.30;;;;;;;3.42;53.40;100361.31;10307087;28;20070;-75
2022/04/10 21:13:28;;;;;;;8.90;4.72;;;;;;;3.27;53.55;100366.88;10306642;28;20089;-73
2022/04/10 21:18:32;;;;;;;6.57;4.07;;;;;;;3.19;53.95;100369.66;10306864;28;20573;-74
2022/04/10 21:23:34;;;;;;;8.88;4.70;;;;;;;3.12;54.18;100362.91;10306300;28;20057;-74
2022/04/10 21:28:35;;;;;;;10.15;5.10;;;;;;;2.99;54.27;100367.50;10305456;28;20566;-74
2022/04/10 21:33:38;;;;;;;10.52;4.82;;;;;;;2.93;54.87;100371.94;10306508;28;20107;-74
2022/04/10 21:38:39;;;;;;;10.82;4.80;;;;;;;2.89;54.92;100367.72;10305715;28;21033;-74
2022/04/10 21:43:41;;;;;;;8.52;4.25;;;;;;;2.88;55.06;100366.03;10305457;28;20053;-74
2022/04/10 21:48:43;;;;;;;6.20;3.95;;;;;;;2.82;55.11;100377.34;10298286;28;20451;-74
2022/04/10 21:53:49;;;;;;;7.00;3.92;;;;;;;2.74;55.25;100370.66;10303493;28;20053;-74
2022/04/10 21:58:52;;;;;;;8.27;4.70;;;;;;;2.70;55.59;100375.00;10302248;28;20456;-74
2022/04/10 22:03:53;;;;;;;6.97;4.15;;;;;;;2.66;55.95;100383.69;10302664;28;20846;-74
2022/04/10 22:08:55;;;;;;;8.45;4.18;;;;;;;2.58;55.95;100377.84;10303107;28;20089;-74
2022/04/10 22:13:57;;;;;;;9.75;5.85;;;;;;;2.50;56.14;100376.31;10302772;28;20164;-75
2022/04/10 22:18:59;;;;;;;9.13;4.30;;;;;;;2.46;56.01;100385.00;10286041;28;20108;-75
2022/04/10 22:24:01;;;;;;;7.38;4.03;;;;;;;2.38;56.16;100392.03;10301481;28;20050;-75
2022/04/10 22:29:03;;;;;;;8.85;4.53;;;;;;;2.36;56.48;100393.81;10301735;28;20153;-75
2022/04/10 22:34:05;;;;;;;9.52;4.93;;;;;;;2.31;56.13;100393.88;10303494;28;20129;-75
2022/04/10 22:39:07;;;;;;;9.75;5.03;;;;;;;2.07;56.46;100391.75;10302657;28;20133;-75
2022/04/10 22:44:09;;;;;;;12.60;5.40;;;;;;;2.03;56.64;100390.13;10302460;28;20069;-75
2022/04/10 22:49:11;;;;;;;11.27;6.53;;;;;;;1.96;56.80;100389.38;10299984;28;20128;-75
2022/04/10 22:54:13;;;;;;;13.63;9.32;;;;;;;1.78;57.11;100399.16;10302360;28;20077;-75
2022/04/10 22:59:15;;;;;;;8.10;4.65;;;;;;;1.74;57.58;100398.34;10301892;28;20144;-75
2022/04/10 23:04:16;;;;;;;6.78;3.53;;;;;;;1.73;57.58;100393.19;10301509;28;20105;-75
2022/04/10 23:09:18;;;;;;;7.57;4.20;;;;;;;1.74;57.86;100384.59;10301303;28;20467;-75
2022/04/10 23:14:20;;;;;;;6.80;4.10;;;;;;;1.75;57.96;100384.56;10308270;28;20062;-75
2022/04/10 23:19:22;;;;;;;7.03;3.70;;;;;;;1.64;57.73;100385.63;10309102;28;20630;-75
2022/04/10 23:24:24;;;;;;;8.43;3.70;;;;;;;1.62;58.26;100388.25;10309283;28;20094;-75
2022/04/10 23:29:25;;;;;;;7.60;3.70;;;;;;;1.66;58.33;100391.63;10292153;28;20054;-75